sensor_id;sensor_type;location;lat;lon;timestamp;pressure;altitude;pressure_sealevel;temperature;humidity
2711;BME280;20721;47.402;8.550;2023-03-16T00:00:20;96352;;;5.93;47.59
2711;BME280;20721;47.402;8.550;2023-03-16T00:01:21;96354;;;5.89;47.57
2711;BME280;20721;47.402;8.550;2023-03-16T00:02:19;96350;;;5.87;47.53
2711;BME280;20721;47.402;8.550;2023-03-16T00:03:19;96351;;;5.88;47.43
2711;BME280;20721;47.402;8.550;2023-03-16T00:04:20;96352;;;5.90;47.48
2711;BME280;20721;47.402;8.550;2023-03-16T00:05:19;96351;;;5.91;47.51
2711;BME280;20721;47.402;8.550;2023-03-16T00:06:19;96350;;;5.89;47.44
2711;BME280;20721;47.402;8.550;2023-03-16T00:07:20;96348;;;5.87;47.36
2711;BME280;20721;47.402;8.550;2023-03-16T00:08:19;96350;;;5.85;47.37
2711;BME280;20721;47.402;8.550;2023-03-16T00:10:26;96350;;;5.84;47.18
2711;BME280;20721;47.402;8.550;2023-03-16T00:11:20;96349;;;5.82;47.08
2711;BME280;20721;47.402;8.550;2023-03-16T00:12:21;96348;;;5.80;47.07
2711;BME280;20721;47.402;8.550;2023-03-16T00:13:23;96348;;;5.75;46.72
2711;BME280;20721;47.402;8.550;2023-03-16T00:14:21;96342;;;5.72;46.82
2711;BME280;20721;47.402;8.550;2023-03-16T00:15:19;96345;;;5.71;46.92
2711;BME280;20721;47.402;8.550;2023-03-16T00:16:19;96348;;;5.69;46.94
2711;BME280;20721;47.402;8.550;2023-03-16T00:17:20;96344;;;5.66;47.09
2711;BME280;20721;47.402;8.550;2023-03-16T00:18:20;96348;;;5.65;46.97
2711;BME280;20721;47.402;8.550;2023-03-16T00:19:21;96352;;;5.68;46.81
2711;BME280;20721;47.402;8.550;2023-03-16T00:20:19;96348;;;5.69;46.66
2711;BME280;20721;47.402;8.550;2023-03-16T00:22:22;96349;;;5.71;46.77
2711;BME280;20721;47.402;8.550;2023-03-16T00:23:26;96347;;;5.74;46.83
2711;BME280;20721;47.402;8.550;2023-03-16T00:24:19;96354;;;5.75;47.09
2711;BME280;20721;47.402;8.550;2023-03-16T00:26:19;96347;;;5.70;46.82
2711;BME280;20721;47.402;8.550;2023-03-16T00:27:22;96345;;;5.67;46.91
2711;BME280;20721;47.402;8.550;2023-03-16T00:28:21;96347;;;5.65;46.73
2711;BME280;20721;47.402;8.550;2023-03-16T00:29:21;96346;;;5.62;46.83
2711;BME280;20721;47.402;8.550;2023-03-16T00:31:19;96349;;;5.59;46.73
2711;BME280;20721;47.402;8.550;2023-03-16T00:32:22;96350;;;5.58;46.92
2711;BME280;20721;47.402;8.550;2023-03-16T00:33:19;96351;;;5.55;46.95
2711;BME280;20721;47.402;8.550;2023-03-16T00:34:21;96347;;;5.56;46.71
2711;BME280;20721;47.402;8.550;2023-03-16T00:35:20;96344;;;5.53;46.85
2711;BME280;20721;47.402;8.550;2023-03-16T00:36:21;96340;;;5.52;46.90
2711;BME280;20721;47.402;8.550;2023-03-16T00:37:20;96340;;;5.51;46.95
2711;BME280;20721;47.402;8.550;2023-03-16T00:39:19;96340;;;5.52;47.08
2711;BME280;20721;47.402;8.550;2023-03-16T00:41:21;96343;;;5.54;47.10
2711;BME280;20721;47.402;8.550;2023-03-16T00:42:19;96338;;;5.52;47.21
2711;BME280;20721;47.402;8.550;2023-03-16T00:43:19;96337;;;5.51;47.21
2711;BME280;20721;47.402;8.550;2023-03-16T00:44:20;96341;;;5.49;47.33
2711;BME280;20721;47.402;8.550;2023-03-16T00:45:19;96338;;;5.47;47.56
2711;BME280;20721;47.402;8.550;2023-03-16T00:46:25;96335;;;5.46;47.37
2711;BME280;20721;47.402;8.550;2023-03-16T00:47:19;96338;;;5.44;47.42
2711;BME280;20721;47.402;8.550;2023-03-16T00:48:23;96340;;;5.42;47.55
2711;BME280;20721;47.402;8.550;2023-03-16T00:50:21;96336;;;5.41;47.85
2711;BME280;20721;47.402;8.550;2023-03-16T00:51:21;96337;;;5.42;47.88
2711;BME280;20721;47.402;8.550;2023-03-16T00:53:21;96337;;;5.41;47.88
2711;BME280;20721;47.402;8.550;2023-03-16T00:56:19;96332;;;5.40;48.07
2711;BME280;20721;47.402;8.550;2023-03-16T00:57:21;96335;;;5.37;48.24
2711;BME280;20721;47.402;8.550;2023-03-16T00:58:19;96328;;;5.36;48.27
2711;BME280;20721;47.402;8.550;2023-03-16T00:59:20;96336;;;5.35;48.40
2711;BME280;20721;47.402;8.550;2023-03-16T01:00:20;96333;;;5.36;48.26
2711;BME280;20721;47.402;8.550;2023-03-16T01:01:19;96334;;;5.37;48.18
2711;BME280;20721;47.402;8.550;2023-03-16T01:02:22;96328;;;5.36;48.35
2711;BME280;20721;47.402;8.550;2023-03-16T01:03:19;96330;;;5.37;48.40
2711;BME280;20721;47.402;8.550;2023-03-16T01:04:19;96332;;;5.39;48.29
2711;BME280;20721;47.402;8.550;2023-03-16T01:05:19;96331;;;5.41;48.16
2711;BME280;20721;47.402;8.550;2023-03-16T01:06:19;96330;;;5.43;48.02
2711;BME280;20721;47.402;8.550;2023-03-16T01:08:21;96322;;;5.42;48.29
2711;BME280;20721;47.402;8.550;2023-03-16T01:09:19;96322;;;5.40;48.06
2711;BME280;20721;47.402;8.550;2023-03-16T01:10:19;96318;;;5.39;47.95
2711;BME280;20721;47.402;8.550;2023-03-16T01:11:21;96315;;;5.40;47.86
2711;BME280;20721;47.402;8.550;2023-03-16T01:14:20;96310;;;5.39;47.86
2711;BME280;20721;47.402;8.550;2023-03-16T01:15:19;96310;;;5.37;47.94
2711;BME280;20721;47.402;8.550;2023-03-16T01:16:22;96309;;;5.34;48.04
2711;BME280;20721;47.402;8.550;2023-03-16T01:17:21;96304;;;5.31;48.12
2711;BME280;20721;47.402;8.550;2023-03-16T01:19:21;96306;;;5.28;48.22
2711;BME280;20721;47.402;8.550;2023-03-16T01:20:19;96308;;;5.29;48.31
2711;BME280;20721;47.402;8.550;2023-03-16T01:21:20;96306;;;5.28;48.34
2711;BME280;20721;47.402;8.550;2023-03-16T01:22:20;96308;;;5.25;48.46
2711;BME280;20721;47.402;8.550;2023-03-16T01:23:20;96308;;;5.23;48.52
2711;BME280;20721;47.402;8.550;2023-03-16T01:24:19;96311;;;5.19;48.71
2711;BME280;20721;47.402;8.550;2023-03-16T01:25:20;96309;;;5.20;48.65
2711;BME280;20721;47.402;8.550;2023-03-16T01:26:20;96310;;;5.19;48.54
2711;BME280;20721;47.402;8.550;2023-03-16T01:27:19;96307;;;5.17;48.52
2711;BME280;20721;47.402;8.550;2023-03-16T01:28:20;96309;;;5.14;48.50
2711;BME280;20721;47.402;8.550;2023-03-16T01:29:19;96311;;;5.15;48.61
2711;BME280;20721;47.402;8.550;2023-03-16T01:31:20;96306;;;5.16;48.83
2711;BME280;20721;47.402;8.550;2023-03-16T01:32:19;96305;;;5.15;48.85
2711;BME280;20721;47.402;8.550;2023-03-16T01:33:20;96298;;;5.14;48.98
2711;BME280;20721;47.402;8.550;2023-03-16T01:34:19;96299;;;5.12;48.98
2711;BME280;20721;47.402;8.550;2023-03-16T01:35:20;96294;;;5.09;48.92
2711;BME280;20721;47.402;8.550;2023-03-16T01:36:20;96294;;;4.97;48.68
2711;BME280;20721;47.402;8.550;2023-03-16T01:37:21;96297;;;4.94;48.68
2711;BME280;20721;47.402;8.550;2023-03-16T01:38:20;96293;;;4.89;48.81
2711;BME280;20721;47.402;8.550;2023-03-16T01:39:19;96293;;;4.87;48.92
2711;BME280;20721;47.402;8.550;2023-03-16T01:40:19;96295;;;4.86;49.01
2711;BME280;20721;47.402;8.550;2023-03-16T01:41:20;96294;;;4.85;49.03
2711;BME280;20721;47.402;8.550;2023-03-16T01:42:19;96296;;;4.88;48.93
2711;BME280;20721;47.402;8.550;2023-03-16T01:43:21;96297;;;4.87;49.06
2711;BME280;20721;47.402;8.550;2023-03-16T01:44:22;96295;;;4.86;48.87
2711;BME280;20721;47.402;8.550;2023-03-16T01:46:21;96289;;;4.84;48.91
2711;BME280;20721;47.402;8.550;2023-03-16T01:47:20;96285;;;4.85;48.88
2711;BME280;20721;47.402;8.550;2023-03-16T01:48:21;96291;;;4.86;48.91
2711;BME280;20721;47.402;8.550;2023-03-16T01:50:21;96284;;;4.87;48.90
2711;BME280;20721;47.402;8.550;2023-03-16T01:52:21;96281;;;4.90;48.72
2711;BME280;20721;47.402;8.550;2023-03-16T01:53:20;96280;;;4.93;48.75
2711;BME280;20721;47.402;8.550;2023-03-16T01:55:19;96275;;;4.93;48.87
2711;BME280;20721;47.402;8.550;2023-03-16T01:56:21;96275;;;4.94;48.81
2711;BME280;20721;47.402;8.550;2023-03-16T01:57:20;96279;;;4.93;48.82
2711;BME280;20721;47.402;8.550;2023-03-16T01:58:20;96278;;;4.91;48.91
2711;BME280;20721;47.402;8.550;2023-03-16T02:00:22;96280;;;4.92;49.13
2711;BME280;20721;47.402;8.550;2023-03-16T02:01:20;96283;;;4.93;49.03
2711;BME280;20721;47.402;8.550;2023-03-16T02:02:20;96283;;;4.91;49.09
2711;BME280;20721;47.402;8.550;2023-03-16T02:04:24;96281;;;4.92;49.04
2711;BME280;20721;47.402;8.550;2023-03-16T02:06:21;96284;;;4.89;49.26
2711;BME280;20721;47.402;8.550;2023-03-16T02:07:20;96283;;;4.87;49.31
2711;BME280;20721;47.402;8.550;2023-03-16T02:09:21;96283;;;4.86;49.49
2711;BME280;20721;47.402;8.550;2023-03-16T02:10:19;96286;;;4.85;49.65
2711;BME280;20721;47.402;8.550;2023-03-16T02:11:21;96284;;;4.84;49.62
2711;BME280;20721;47.402;8.550;2023-03-16T02:12:19;96288;;;4.83;49.68
2711;BME280;20721;47.402;8.550;2023-03-16T02:13:21;96291;;;4.81;49.67
2711;BME280;20721;47.402;8.550;2023-03-16T02:16:21;96292;;;4.80;49.86
2711;BME280;20721;47.402;8.550;2023-03-16T02:17:22;96293;;;4.78;49.95
2711;BME280;20721;47.402;8.550;2023-03-16T02:18:21;96290;;;4.80;49.86
2711;BME280;20721;47.402;8.550;2023-03-16T02:19:27;96287;;;4.79;50.06
2711;BME280;20721;47.402;8.550;2023-03-16T02:20:39;96284;;;4.78;49.93
2711;BME280;20721;47.402;8.550;2023-03-16T02:22:24;96282;;;4.77;49.89
2711;BME280;20721;47.402;8.550;2023-03-16T02:23:20;96285;;;4.78;49.91
2711;BME280;20721;47.402;8.550;2023-03-16T02:24:20;96283;;;4.75;49.93
2711;BME280;20721;47.402;8.550;2023-03-16T02:25:22;96281;;;4.73;50.02
2711;BME280;20721;47.402;8.550;2023-03-16T02:27:24;96284;;;4.69;50.09
2711;BME280;20721;47.402;8.550;2023-03-16T02:28:24;96285;;;4.65;50.15
2711;BME280;20721;47.402;8.550;2023-03-16T02:30:20;96283;;;4.58;50.37
2711;BME280;20721;47.402;8.550;2023-03-16T02:31:21;96284;;;4.59;50.43
2711;BME280;20721;47.402;8.550;2023-03-16T02:32:20;96281;;;4.58;50.31
2711;BME280;20721;47.402;8.550;2023-03-16T02:34:20;96281;;;4.56;50.39
2711;BME280;20721;47.402;8.550;2023-03-16T02:36:20;96283;;;4.59;50.52
2711;BME280;20721;47.402;8.550;2023-03-16T02:37:20;96280;;;4.61;50.34
2711;BME280;20721;47.402;8.550;2023-03-16T02:38:19;96281;;;4.59;50.45
2711;BME280;20721;47.402;8.550;2023-03-16T02:39:19;96279;;;4.58;50.48
2711;BME280;20721;47.402;8.550;2023-03-16T02:40:22;96280;;;4.56;50.54
2711;BME280;20721;47.402;8.550;2023-03-16T02:42:21;96279;;;4.54;50.54
2711;BME280;20721;47.402;8.550;2023-03-16T02:43:21;96276;;;4.56;50.56
2711;BME280;20721;47.402;8.550;2023-03-16T02:44:25;96274;;;4.58;50.52
2711;BME280;20721;47.402;8.550;2023-03-16T02:45:20;96277;;;4.55;50.62
2711;BME280;20721;47.402;8.550;2023-03-16T02:46:20;96277;;;4.56;50.67
2711;BME280;20721;47.402;8.550;2023-03-16T02:49:36;96270;;;4.55;50.78
2711;BME280;20721;47.402;8.550;2023-03-16T02:51:20;96271;;;4.57;50.80
2711;BME280;20721;47.402;8.550;2023-03-16T02:52:20;96271;;;4.56;50.87
2711;BME280;20721;47.402;8.550;2023-03-16T02:54:20;96270;;;4.55;50.76
2711;BME280;20721;47.402;8.550;2023-03-16T02:56:20;96270;;;4.56;50.82
2711;BME280;20721;47.402;8.550;2023-03-16T02:57:20;96274;;;4.53;50.81
2711;BME280;20721;47.402;8.550;2023-03-16T02:58:20;96275;;;4.50;50.85
2711;BME280;20721;47.402;8.550;2023-03-16T02:59:20;96272;;;4.48;50.96
2711;BME280;20721;47.402;8.550;2023-03-16T03:00:21;96274;;;4.45;51.15
2711;BME280;20721;47.402;8.550;2023-03-16T03:01:20;96274;;;4.43;51.08
2711;BME280;20721;47.402;8.550;2023-03-16T03:02:20;96273;;;4.42;51.05
2711;BME280;20721;47.402;8.550;2023-03-16T03:03:20;96272;;;4.40;51.11
2711;BME280;20721;47.402;8.550;2023-03-16T03:06:20;96274;;;4.39;51.51
2711;BME280;20721;47.402;8.550;2023-03-16T03:07:20;96277;;;4.41;51.31
2711;BME280;20721;47.402;8.550;2023-03-16T03:08:21;96274;;;4.40;51.24
2711;BME280;20721;47.402;8.550;2023-03-16T03:10:20;96272;;;4.39;51.46
2711;BME280;20721;47.402;8.550;2023-03-16T03:11:20;96276;;;4.40;51.31
2711;BME280;20721;47.402;8.550;2023-03-16T03:12:20;96276;;;4.38;51.46
2711;BME280;20721;47.402;8.550;2023-03-16T03:13:20;96277;;;4.39;51.52
2711;BME280;20721;47.402;8.550;2023-03-16T03:14:20;96277;;;4.40;51.47
2711;BME280;20721;47.402;8.550;2023-03-16T03:16:20;96277;;;4.39;51.64
2711;BME280;20721;47.402;8.550;2023-03-16T03:18:20;96274;;;4.38;51.58
2711;BME280;20721;47.402;8.550;2023-03-16T03:19:20;96277;;;4.39;51.72
2711;BME280;20721;47.402;8.550;2023-03-16T03:20:20;96277;;;4.37;51.81
2711;BME280;20721;47.402;8.550;2023-03-16T03:25:20;96275;;;4.36;51.78
2711;BME280;20721;47.402;8.550;2023-03-16T03:26:20;96270;;;4.37;51.60
2711;BME280;20721;47.402;8.550;2023-03-16T03:27:21;96270;;;4.36;51.66
2711;BME280;20721;47.402;8.550;2023-03-16T03:28:21;96268;;;4.37;51.51
2711;BME280;20721;47.402;8.550;2023-03-16T03:30:21;96266;;;4.36;51.64
2711;BME280;20721;47.402;8.550;2023-03-16T03:31:20;96265;;;4.32;51.50
2711;BME280;20721;47.402;8.550;2023-03-16T03:32:20;96265;;;4.28;51.65
2711;BME280;20721;47.402;8.550;2023-03-16T03:33:21;96264;;;4.25;51.79
2711;BME280;20721;47.402;8.550;2023-03-16T03:34:20;96268;;;4.24;51.75
2711;BME280;20721;47.402;8.550;2023-03-16T03:36:21;96266;;;4.23;51.82
2711;BME280;20721;47.402;8.550;2023-03-16T03:37:20;96261;;;4.22;51.75
2711;BME280;20721;47.402;8.550;2023-03-16T03:38:20;96262;;;4.23;51.83
2711;BME280;20721;47.402;8.550;2023-03-16T03:39:20;96259;;;4.25;51.93
2711;BME280;20721;47.402;8.550;2023-03-16T03:40:20;96264;;;4.26;51.93
2711;BME280;20721;47.402;8.550;2023-03-16T03:41:21;96257;;;4.24;51.98
2711;BME280;20721;47.402;8.550;2023-03-16T03:42:22;96258;;;4.27;51.91
2711;BME280;20721;47.402;8.550;2023-03-16T03:43:20;96258;;;4.26;51.96
2711;BME280;20721;47.402;8.550;2023-03-16T03:47:20;96256;;;4.24;52.08
2711;BME280;20721;47.402;8.550;2023-03-16T03:50:20;96257;;;4.25;52.24
2711;BME280;20721;47.402;8.550;2023-03-16T03:51:20;96255;;;4.26;52.17
2711;BME280;20721;47.402;8.550;2023-03-16T03:53:20;96259;;;4.27;52.15
2711;BME280;20721;47.402;8.550;2023-03-16T03:54:20;96257;;;4.26;51.96
2711;BME280;20721;47.402;8.550;2023-03-16T03:57:22;96250;;;4.23;51.85
2711;BME280;20721;47.402;8.550;2023-03-16T03:58:20;96251;;;4.18;51.96
2711;BME280;20721;47.402;8.550;2023-03-16T03:59:21;96253;;;4.17;51.99
2711;BME280;20721;47.402;8.550;2023-03-16T04:00:20;96246;;;4.15;52.02
2711;BME280;20721;47.402;8.550;2023-03-16T04:01:20;96249;;;4.11;52.21
2711;BME280;20721;47.402;8.550;2023-03-16T04:02:20;96249;;;4.08;52.25
2711;BME280;20721;47.402;8.550;2023-03-16T04:03:20;96250;;;4.03;52.48
2711;BME280;20721;47.402;8.550;2023-03-16T04:04:20;96251;;;4.00;52.55
2711;BME280;20721;47.402;8.550;2023-03-16T04:05:20;96250;;;3.98;52.57
2711;BME280;20721;47.402;8.550;2023-03-16T04:06:20;96250;;;3.94;52.65
2711;BME280;20721;47.402;8.550;2023-03-16T04:07:20;96254;;;3.92;52.63
2711;BME280;20721;47.402;8.550;2023-03-16T04:08:20;96254;;;3.90;52.74
2711;BME280;20721;47.402;8.550;2023-03-16T04:09:20;96251;;;3.84;52.75
2711;BME280;20721;47.402;8.550;2023-03-16T04:10:20;96250;;;3.82;52.93
2711;BME280;20721;47.402;8.550;2023-03-16T04:11:20;96247;;;3.85;52.92
2711;BME280;20721;47.402;8.550;2023-03-16T04:12:20;96249;;;3.88;52.82
2711;BME280;20721;47.402;8.550;2023-03-16T04:14:20;96245;;;3.87;52.80
2711;BME280;20721;47.402;8.550;2023-03-16T04:16:21;96247;;;3.84;52.77
2711;BME280;20721;47.402;8.550;2023-03-16T04:17:20;96248;;;3.83;52.88
2711;BME280;20721;47.402;8.550;2023-03-16T04:18:21;96249;;;3.85;52.88
2711;BME280;20721;47.402;8.550;2023-03-16T04:20:21;96246;;;3.86;52.99
2711;BME280;20721;47.402;8.550;2023-03-16T04:21:20;96243;;;3.88;52.85
2711;BME280;20721;47.402;8.550;2023-03-16T04:22:22;96246;;;3.89;52.77
2711;BME280;20721;47.402;8.550;2023-03-16T04:23:20;96246;;;3.88;52.86
2711;BME280;20721;47.402;8.550;2023-03-16T04:24:21;96244;;;3.90;52.88
2711;BME280;20721;47.402;8.550;2023-03-16T04:25:20;96244;;;3.89;52.91
2711;BME280;20721;47.402;8.550;2023-03-16T04:26:20;96243;;;3.90;52.84
2711;BME280;20721;47.402;8.550;2023-03-16T04:29:20;96243;;;3.87;52.70
2711;BME280;20721;47.402;8.550;2023-03-16T04:30:22;96239;;;3.86;52.83
2711;BME280;20721;47.402;8.550;2023-03-16T04:31:20;96239;;;3.84;52.81
2711;BME280;20721;47.402;8.550;2023-03-16T04:33:20;96238;;;3.82;52.75
2711;BME280;20721;47.402;8.550;2023-03-16T04:34:24;96240;;;3.80;52.87
2711;BME280;20721;47.402;8.550;2023-03-16T04:35:21;96236;;;3.78;53.12
2711;BME280;20721;47.402;8.550;2023-03-16T04:36:23;96235;;;3.80;53.24
2711;BME280;20721;47.402;8.550;2023-03-16T04:37:21;96232;;;3.83;53.00
2711;BME280;20721;47.402;8.550;2023-03-16T04:39:20;96233;;;3.85;52.91
2711;BME280;20721;47.402;8.550;2023-03-16T04:40:20;96232;;;3.83;52.97
2711;BME280;20721;47.402;8.550;2023-03-16T04:41:20;96236;;;3.84;52.85
2711;BME280;20721;47.402;8.550;2023-03-16T04:42:20;96240;;;3.82;52.93
2711;BME280;20721;47.402;8.550;2023-03-16T04:43:20;96240;;;3.83;52.89
2711;BME280;20721;47.402;8.550;2023-03-16T04:44:20;96240;;;3.82;52.86
2711;BME280;20721;47.402;8.550;2023-03-16T04:45:20;96236;;;3.80;52.82
2711;BME280;20721;47.402;8.550;2023-03-16T04:46:20;96235;;;3.77;52.97
2711;BME280;20721;47.402;8.550;2023-03-16T04:48:20;96234;;;3.78;52.86
2711;BME280;20721;47.402;8.550;2023-03-16T04:50:20;96234;;;3.80;52.86
2711;BME280;20721;47.402;8.550;2023-03-16T04:51:20;96228;;;3.79;53.00
2711;BME280;20721;47.402;8.550;2023-03-16T04:52:20;96230;;;3.74;53.12
2711;BME280;20721;47.402;8.550;2023-03-16T04:53:20;96233;;;3.75;53.00
2711;BME280;20721;47.402;8.550;2023-03-16T04:54:20;96230;;;3.77;52.92
2711;BME280;20721;47.402;8.550;2023-03-16T04:55:21;96225;;;3.75;53.04
2711;BME280;20721;47.402;8.550;2023-03-16T04:56:20;96228;;;3.73;52.97
2711;BME280;20721;47.402;8.550;2023-03-16T04:57:20;96226;;;3.71;53.07
2711;BME280;20721;47.402;8.550;2023-03-16T04:58:21;96225;;;3.69;53.15
2711;BME280;20721;47.402;8.550;2023-03-16T04:59:20;96224;;;3.67;53.06
2711;BME280;20721;47.402;8.550;2023-03-16T05:00:22;96225;;;3.66;53.18
2711;BME280;20721;47.402;8.550;2023-03-16T05:02:20;96228;;;3.64;53.23
2711;BME280;20721;47.402;8.550;2023-03-16T05:03:20;96227;;;3.63;53.30
2711;BME280;20721;47.402;8.550;2023-03-16T05:04:20;96229;;;3.61;53.25
2711;BME280;20721;47.402;8.550;2023-03-16T05:05:20;96228;;;3.60;53.28
2711;BME280;20721;47.402;8.550;2023-03-16T05:06:20;96232;;;3.57;53.29
2711;BME280;20721;47.402;8.550;2023-03-16T05:09:20;96226;;;3.58;53.52
2711;BME280;20721;47.402;8.550;2023-03-16T05:11:20;96227;;;3.59;53.44
2711;BME280;20721;47.402;8.550;2023-03-16T05:12:20;96223;;;3.58;53.52
2711;BME280;20721;47.402;8.550;2023-03-16T05:14:20;96225;;;3.59;53.56
2711;BME280;20721;47.402;8.550;2023-03-16T05:15:20;96225;;;3.61;53.58
2711;BME280;20721;47.402;8.550;2023-03-16T05:17:21;96225;;;3.62;53.68
2711;BME280;20721;47.402;8.550;2023-03-16T05:18:20;96229;;;3.65;53.54
2711;BME280;20721;47.402;8.550;2023-03-16T05:19:20;96227;;;3.67;53.43
2711;BME280;20721;47.402;8.550;2023-03-16T05:21:20;96225;;;3.65;53.57
2711;BME280;20721;47.402;8.550;2023-03-16T05:22:20;96222;;;3.62;53.69
2711;BME280;20721;47.402;8.550;2023-03-16T05:23:20;96226;;;3.60;53.84
2711;BME280;20721;47.402;8.550;2023-03-16T05:25:20;96218;;;3.61;54.01
2711;BME280;20721;47.402;8.550;2023-03-16T05:26:20;96222;;;3.62;53.93
2711;BME280;20721;47.402;8.550;2023-03-16T05:27:20;96224;;;3.65;53.87
2711;BME280;20721;47.402;8.550;2023-03-16T05:28:20;96221;;;3.66;53.74
2711;BME280;20721;47.402;8.550;2023-03-16T05:29:20;96220;;;3.65;53.93
2711;BME280;20721;47.402;8.550;2023-03-16T05:30:20;96219;;;3.63;54.06
2711;BME280;20721;47.402;8.550;2023-03-16T05:31:20;96221;;;3.62;54.06
2711;BME280;20721;47.402;8.550;2023-03-16T05:32:20;96218;;;3.61;54.12
2711;BME280;20721;47.402;8.550;2023-03-16T05:33:20;96220;;;3.60;54.11
2711;BME280;20721;47.402;8.550;2023-03-16T05:35:23;96216;;;3.59;54.05
2711;BME280;20721;47.402;8.550;2023-03-16T05:36:20;96219;;;3.55;54.13
2711;BME280;20721;47.402;8.550;2023-03-16T05:37:20;96217;;;3.56;54.14
2711;BME280;20721;47.402;8.550;2023-03-16T05:38:20;96215;;;3.55;54.23
2711;BME280;20721;47.402;8.550;2023-03-16T05:39:21;96215;;;3.56;54.19
2711;BME280;20721;47.402;8.550;2023-03-16T05:40:21;96211;;;3.57;54.30
2711;BME280;20721;47.402;8.550;2023-03-16T05:41:21;96211;;;3.60;54.19
2711;BME280;20721;47.402;8.550;2023-03-16T05:42:20;96206;;;3.62;54.17
2711;BME280;20721;47.402;8.550;2023-03-16T05:43:20;96211;;;3.64;54.23
2711;BME280;20721;47.402;8.550;2023-03-16T05:44:20;96210;;;3.66;54.25
2711;BME280;20721;47.402;8.550;2023-03-16T05:45:20;96211;;;3.70;54.23
2711;BME280;20721;47.402;8.550;2023-03-16T05:46:21;96208;;;3.72;54.09
2711;BME280;20721;47.402;8.550;2023-03-16T05:47:20;96205;;;3.73;54.08
2711;BME280;20721;47.402;8.550;2023-03-16T05:49:20;96204;;;3.74;54.03
2711;BME280;20721;47.402;8.550;2023-03-16T05:50:20;96204;;;3.75;54.01
2711;BME280;20721;47.402;8.550;2023-03-16T05:51:20;96205;;;3.74;54.12
2711;BME280;20721;47.402;8.550;2023-03-16T05:52:20;96206;;;3.73;54.05
2711;BME280;20721;47.402;8.550;2023-03-16T05:53:22;96207;;;3.74;54.09
2711;BME280;20721;47.402;8.550;2023-03-16T05:56:20;96208;;;3.76;54.10
2711;BME280;20721;47.402;8.550;2023-03-16T05:57:20;96208;;;3.79;54.14
2711;BME280;20721;47.402;8.550;2023-03-16T05:58:20;96210;;;3.81;54.10
2711;BME280;20721;47.402;8.550;2023-03-16T05:59:20;96208;;;3.83;54.13
2711;BME280;20721;47.402;8.550;2023-03-16T06:02:20;96204;;;3.86;54.12
2711;BME280;20721;47.402;8.550;2023-03-16T06:03:21;96204;;;3.88;54.05
2711;BME280;20721;47.402;8.550;2023-03-16T06:04:20;96210;;;3.91;54.05
2711;BME280;20721;47.402;8.550;2023-03-16T06:05:21;96206;;;3.94;53.97
2711;BME280;20721;47.402;8.550;2023-03-16T06:06:21;96208;;;3.95;53.98
2711;BME280;20721;47.402;8.550;2023-03-16T06:08:20;96210;;;3.97;53.96
2711;BME280;20721;47.402;8.550;2023-03-16T06:09:20;96209;;;3.98;53.97
2711;BME280;20721;47.402;8.550;2023-03-16T06:10:20;96213;;;4.00;53.94
2711;BME280;20721;47.402;8.550;2023-03-16T06:11:20;96214;;;4.03;53.97
2711;BME280;20721;47.402;8.550;2023-03-16T06:12:20;96211;;;4.06;53.95
2711;BME280;20721;47.402;8.550;2023-03-16T06:13:20;96214;;;4.09;53.95
2711;BME280;20721;47.402;8.550;2023-03-16T06:14:20;96214;;;4.12;53.98
2711;BME280;20721;47.402;8.550;2023-03-16T06:15:24;96212;;;4.19;53.80
2711;BME280;20721;47.402;8.550;2023-03-16T06:16:20;96214;;;4.23;53.68
2711;BME280;20721;47.402;8.550;2023-03-16T06:17:20;96214;;;4.25;53.66
2711;BME280;20721;47.402;8.550;2023-03-16T06:18:20;96218;;;4.29;53.59
2711;BME280;20721;47.402;8.550;2023-03-16T06:19:20;96215;;;4.36;53.54
2711;BME280;20721;47.402;8.550;2023-03-16T06:20:20;96218;;;4.44;53.15
2711;BME280;20721;47.402;8.550;2023-03-16T06:21:20;96220;;;4.51;53.10
2711;BME280;20721;47.402;8.550;2023-03-16T06:22:21;96218;;;4.59;52.96
2711;BME280;20721;47.402;8.550;2023-03-16T06:23:20;96218;;;4.67;52.83
2711;BME280;20721;47.402;8.550;2023-03-16T06:24:20;96226;;;4.76;52.82
2711;BME280;20721;47.402;8.550;2023-03-16T06:25:20;96226;;;4.85;52.73
2711;BME280;20721;47.402;8.550;2023-03-16T06:26:20;96227;;;4.95;52.55
2711;BME280;20721;47.402;8.550;2023-03-16T06:27:20;96227;;;5.05;52.38
2711;BME280;20721;47.402;8.550;2023-03-16T06:28:21;96226;;;5.15;51.93
2711;BME280;20721;47.402;8.550;2023-03-16T06:29:20;96224;;;5.25;51.66
2711;BME280;20721;47.402;8.550;2023-03-16T06:30:20;96224;;;5.39;51.60
2711;BME280;20721;47.402;8.550;2023-03-16T06:31:20;96227;;;5.54;51.14
2711;BME280;20721;47.402;8.550;2023-03-16T06:32:21;96228;;;5.68;50.62
2711;BME280;20721;47.402;8.550;2023-03-16T06:33:20;96233;;;5.82;50.28
2711;BME280;20721;47.402;8.550;2023-03-16T06:34:21;96230;;;5.97;50.08
2711;BME280;20721;47.402;8.550;2023-03-16T06:35:20;96234;;;6.21;49.77
2711;BME280;20721;47.402;8.550;2023-03-16T06:36:20;96234;;;6.53;49.12
2711;BME280;20721;47.402;8.550;2023-03-16T06:37:20;96230;;;7.04;48.08
2711;BME280;20721;47.402;8.550;2023-03-16T06:38:20;96233;;;7.78;46.48
2711;BME280;20721;47.402;8.550;2023-03-16T06:39:20;96234;;;8.58;45.13
2711;BME280;20721;47.402;8.550;2023-03-16T06:40:20;96231;;;9.34;43.86
2711;BME280;20721;47.402;8.550;2023-03-16T06:41:20;96236;;;10.12;42.28
2711;BME280;20721;47.402;8.550;2023-03-16T06:42:20;96240;;;10.86;40.93
2711;BME280;20721;47.402;8.550;2023-03-16T06:43:20;96233;;;11.58;39.46
2711;BME280;20721;47.402;8.550;2023-03-16T06:44:20;96233;;;12.32;38.42
2711;BME280;20721;47.402;8.550;2023-03-16T06:45:21;96234;;;13.03;37.08
2711;BME280;20721;47.402;8.550;2023-03-16T06:46:20;96231;;;13.79;35.70
2711;BME280;20721;47.402;8.550;2023-03-16T06:47:20;96230;;;14.46;34.67
2711;BME280;20721;47.402;8.550;2023-03-16T06:48:20;96234;;;15.12;33.50
2711;BME280;20721;47.402;8.550;2023-03-16T06:49:20;96237;;;15.62;32.55
2711;BME280;20721;47.402;8.550;2023-03-16T06:50:20;96235;;;16.21;31.67
2711;BME280;20721;47.402;8.550;2023-03-16T06:51:20;96240;;;16.82;31.01
2711;BME280;20721;47.402;8.550;2023-03-16T06:52:20;96241;;;17.40;30.01
2711;BME280;20721;47.402;8.550;2023-03-16T06:53:21;96246;;;17.97;29.19
2711;BME280;20721;47.402;8.550;2023-03-16T06:54:20;96248;;;18.50;28.43
2711;BME280;20721;47.402;8.550;2023-03-16T06:55:20;96250;;;19.00;27.61
2711;BME280;20721;47.402;8.550;2023-03-16T06:56:20;96255;;;19.54;27.15
2711;BME280;20721;47.402;8.550;2023-03-16T06:57:20;96258;;;19.99;26.48
2711;BME280;20721;47.402;8.550;2023-03-16T06:58:20;96264;;;20.44;25.80
2711;BME280;20721;47.402;8.550;2023-03-16T06:59:20;96256;;;20.82;25.21